createdAt,value
2022-08-17T00:01:24.126Z,19.55
2022-08-17T00:06:31.198Z,19.52
2022-08-17T00:11:36.297Z,19.51
2022-08-17T00:16:55.529Z,19.51
2022-08-17T00:22:31.974Z,19.47
2022-08-17T00:27:22.232Z,19.43
2022-08-17T00:33:14.072Z,19.41
2022-08-17T00:37:45.363Z,19.42
2022-08-17T00:42:48.091Z,19.38
2022-08-17T00:47:49.665Z,19.34
2022-08-17T00:52:56.004Z,19.27
2022-08-17T00:58:01.531Z,19.31
2022-08-17T01:03:11.855Z,19.34
2022-08-17T01:08:17.098Z,19.44
2022-08-17T01:13:19.946Z,19.39
2022-08-17T01:18:21.694Z,19.31
2022-08-17T01:23:25.391Z,19.07
2022-08-17T01:28:53.030Z,18.82
2022-08-17T01:33:53.269Z,18.45
2022-08-17T01:38:55.000Z,18.04
2022-08-17T01:44:03.278Z,17.69
2022-08-17T01:49:10.750Z,17.50
2022-08-17T01:54:16.294Z,17.39
2022-08-17T01:59:20.084Z,17.24
2022-08-17T02:04:21.756Z,17.19
2022-08-17T02:09:28.877Z,17.10
2022-08-17T02:14:31.577Z,16.89
2022-08-17T02:19:33.270Z,16.79
2022-08-17T02:24:58.894Z,16.73
2022-08-17T02:29:58.729Z,16.69
2022-08-17T02:35:00.912Z,16.66
2022-08-17T02:40:03.007Z,16.65
2022-08-17T02:45:11.119Z,16.63
2022-08-17T02:50:15.768Z,16.61
2022-08-17T03:01:21.620Z,16.45
2022-08-17T03:06:25.811Z,16.40
2022-08-17T03:11:27.376Z,16.48
2022-08-17T03:16:28.925Z,16.72
2022-08-17T03:21:30.507Z,16.99
2022-08-17T03:26:32.313Z,17.13
2022-08-17T03:31:33.918Z,17.22
2022-08-17T03:36:38.771Z,17.27
2022-08-17T03:41:40.326Z,17.33
2022-08-17T03:47:00.230Z,17.40
2022-08-17T03:52:21.770Z,17.41
2022-08-17T04:03:32.096Z,17.54
2022-08-17T04:14:53.445Z,17.70
2022-08-17T04:19:56.650Z,17.81
2022-08-17T04:24:58.785Z,17.91
2022-08-17T04:30:01.520Z,18.01
2022-08-17T04:35:03.242Z,18.12
2022-08-17T04:40:27.187Z,18.21
2022-08-17T04:45:31.976Z,18.43
2022-08-17T04:50:35.754Z,18.67
2022-08-17T04:55:37.570Z,18.91
2022-08-17T05:00:40.895Z,18.94
2022-08-17T05:05:49.545Z,19.04
2022-08-17T05:10:52.034Z,19.26
2022-08-17T05:15:56.946Z,19.46
2022-08-17T05:20:58.602Z,19.70
2022-08-17T05:26:00.224Z,19.93
2022-08-17T05:31:03.934Z,20.17
2022-08-17T05:36:10.699Z,20.48
2022-08-17T05:41:32.331Z,20.70
2022-08-17T05:46:40.198Z,20.90
2022-08-17T05:52:06.348Z,21.20
2022-08-17T05:57:32.408Z,21.76
2022-08-17T06:03:04.291Z,22.30
2022-08-17T06:08:23.494Z,22.54
2022-08-17T06:13:27.894Z,22.62
2022-08-17T06:18:57.021Z,22.55
2022-08-17T06:24:25.058Z,22.45
2022-08-17T06:29:39.546Z,22.31
2022-08-17T06:34:43.615Z,22.20
2022-08-17T06:39:52.304Z,22.24
2022-08-17T06:45:05.973Z,22.14
2022-08-17T06:50:27.356Z,22.05
2022-08-17T06:55:38.280Z,21.79
2022-08-17T07:00:44.255Z,21.57
2022-08-17T07:05:51.712Z,21.34
2022-08-17T07:10:57.770Z,21.23
2022-08-17T07:16:17.015Z,21.23
2022-08-17T07:21:41.254Z,21.43
2022-08-17T07:26:42.800Z,21.80
2022-08-17T07:31:46.109Z,22.10
2022-08-17T07:36:48.313Z,22.31
2022-08-17T07:41:57.167Z,22.42
2022-08-17T07:47:19.018Z,22.42
2022-08-17T07:52:50.524Z,22.24
2022-08-17T07:57:57.715Z,22.07
2022-08-17T08:03:25.967Z,21.92
2022-08-17T08:08:50.405Z,22.18
2022-08-17T08:13:52.127Z,22.00
2022-08-17T08:18:57.960Z,22.04
2022-08-17T08:24:17.788Z,21.88
2022-08-17T08:29:19.306Z,21.81
2022-08-17T08:35:01.470Z,21.92
2022-08-17T08:40:31.981Z,21.98
2022-08-17T08:45:33.472Z,22.10
2022-08-17T08:50:48.168Z,22.38
2022-08-17T08:55:58.963Z,22.71
2022-08-17T09:01:20.829Z,22.86
2022-08-17T09:06:47.047Z,22.95
2022-08-17T09:12:02.282Z,23.03
2022-08-17T09:17:46.870Z,22.78
2022-08-17T09:22:53.517Z,22.25
2022-08-17T09:27:55.006Z,22.11
2022-08-17T09:33:00.196Z,21.94
2022-08-17T09:38:11.631Z,21.93
2022-08-17T09:43:30.672Z,22.14
2022-08-17T09:48:42.704Z,22.34
2022-08-17T09:53:44.852Z,22.33
2022-08-17T09:59:05.175Z,22.28
2022-08-17T10:04:32.167Z,22.16
2022-08-17T10:09:45.797Z,22.28
2022-08-17T10:15:08.047Z,22.81
2022-08-17T10:20:20.479Z,23.66
2022-08-17T10:25:54.785Z,24.34
2022-08-17T10:31:32.986Z,24.99
2022-08-17T10:36:41.368Z,25.53
2022-08-17T10:41:49.402Z,25.76
2022-08-17T10:47:05.507Z,25.67
2022-08-17T10:52:42.394Z,25.69
2022-08-17T10:57:50.206Z,25.87
2022-08-17T11:02:55.011Z,26.14
2022-08-17T11:07:58.485Z,26.42
2022-08-17T11:13:26.769Z,26.69
2022-08-17T11:18:40.169Z,26.78
2022-08-17T11:24:12.627Z,26.96
2022-08-17T11:29:50.676Z,27.21
2022-08-17T11:35:21.079Z,27.58
2022-08-17T11:40:47.482Z,27.72
2022-08-17T11:45:51.744Z,28.11
2022-08-17T11:51:19.063Z,28.21
2022-08-17T11:56:41.250Z,27.80
2022-08-17T12:01:57.061Z,27.00
2022-08-17T12:07:19.030Z,26.49
2022-08-17T12:12:29.803Z,26.39
2022-08-17T12:17:39.732Z,26.38
2022-08-17T12:22:54.747Z,26.56
2022-08-17T12:28:06.523Z,26.83
2022-08-17T12:33:13.692Z,27.34
2022-08-17T12:38:34.778Z,27.55
2022-08-17T12:43:36.487Z,27.78
2022-08-17T12:48:38.060Z,28.12
2022-08-17T12:53:42.429Z,28.32
2022-08-17T12:58:55.585Z,28.25
2022-08-17T13:04:00.162Z,28.08
2022-08-17T13:09:20.424Z,27.98
2022-08-17T13:14:22.517Z,27.88
2022-08-17T13:19:29.877Z,27.56
2022-08-17T13:24:53.287Z,27.38
2022-08-17T13:30:02.239Z,27.44
2022-08-17T13:35:40.955Z,27.66
2022-08-17T13:40:49.928Z,27.82
2022-08-17T13:45:52.353Z,27.94
2022-08-17T13:50:56.961Z,28.21
2022-08-17T13:56:07.395Z,28.62
2022-08-17T14:01:32.769Z,29.03
2022-08-17T14:06:53.218Z,29.27
2022-08-17T14:11:57.760Z,29.34
2022-08-17T14:16:59.353Z,29.15
2022-08-17T14:22:01.133Z,28.91
2022-08-17T14:27:05.328Z,28.66
2022-08-17T14:32:17.093Z,28.52
2022-08-17T14:37:20.408Z,28.41
2022-08-17T14:42:27.146Z,28.47
2022-08-17T14:47:28.694Z,28.42
2022-08-17T14:52:30.549Z,28.50
2022-08-17T14:57:34.621Z,28.75
2022-08-17T15:02:54.650Z,28.78
2022-08-17T15:07:56.220Z,28.83
2022-08-17T15:12:58.293Z,29.23
2022-08-17T15:18:00.383Z,29.66
2022-08-17T15:23:02.216Z,29.88
2022-08-17T15:28:04.166Z,30.01
2022-08-17T15:33:05.770Z,29.73
2022-08-17T15:38:11.965Z,29.61
2022-08-17T15:43:27.331Z,29.60
2022-08-17T15:48:41.718Z,29.73
2022-08-17T15:53:46.888Z,29.82
2022-08-17T15:58:49.420Z,29.79
2022-08-17T16:04:05.247Z,29.86
2022-08-17T16:09:08.905Z,29.83
2022-08-17T16:14:10.439Z,29.82
2022-08-17T16:19:15.320Z,29.45
2022-08-17T16:24:16.900Z,29.06
2022-08-17T16:29:18.509Z,28.92
2022-08-17T16:34:21.029Z,28.72
2022-08-17T16:39:24.571Z,28.40
2022-08-17T16:44:27.444Z,28.03
2022-08-17T16:49:36.974Z,27.93
2022-08-17T16:54:43.461Z,27.75
2022-08-17T16:59:50.154Z,27.45
2022-08-17T17:05:03.069Z,27.34
2022-08-17T17:10:16.987Z,27.15
2022-08-17T17:15:22.136Z,26.86
2022-08-17T17:20:28.914Z,26.67
2022-08-17T17:25:40.672Z,26.55
2022-08-17T17:30:47.098Z,26.44
2022-08-17T17:35:59.138Z,26.39
2022-08-17T17:41:05.487Z,26.31
2022-08-17T17:46:31.338Z,26.19
2022-08-17T17:52:07.690Z,26.07
2022-08-17T17:57:33.830Z,25.90
2022-08-17T18:02:52.018Z,25.74
2022-08-17T18:08:21.837Z,25.55
2022-08-17T18:13:54.127Z,25.27
2022-08-17T18:18:57.888Z,25.00
2022-08-17T18:24:05.392Z,24.73
2022-08-17T18:29:28.177Z,24.48
2022-08-17T18:34:46.712Z,24.20
2022-08-17T18:45:54.187Z,23.51
2022-08-17T18:51:00.269Z,23.27
2022-08-17T18:56:27.088Z,23.00
2022-08-17T19:01:53.655Z,22.82
2022-08-17T19:07:23.699Z,22.69
2022-08-17T19:12:48.344Z,22.58
2022-08-17T19:17:57.043Z,22.45
2022-08-17T19:23:12.971Z,22.35
2022-08-17T19:28:23.048Z,22.21
2022-08-17T19:33:25.757Z,22.12
2022-08-17T19:38:46.022Z,22.05
2022-08-17T19:44:15.280Z,21.94
2022-08-17T19:49:40.807Z,21.70
2022-08-17T19:55:02.240Z,21.45
2022-08-17T20:00:15.041Z,21.27
2022-08-17T20:05:22.261Z,21.11
2022-08-17T20:10:38.705Z,20.97
2022-08-17T20:15:43.018Z,20.83
2022-08-17T20:20:56.966Z,20.69
2022-08-17T20:26:10.755Z,20.61
2022-08-17T20:31:50.611Z,20.54
2022-08-17T20:37:07.739Z,20.51
2022-08-17T20:42:31.458Z,20.44
2022-08-17T20:48:07.280Z,20.40
2022-08-17T20:53:13.420Z,20.44
2022-08-17T20:58:17.055Z,20.45
2022-08-17T21:03:25.283Z,20.41
2022-08-17T21:08:30.577Z,20.45
2022-08-17T21:14:10.757Z,20.46
2022-08-17T21:20:07.628Z,20.44
2022-08-17T21:25:25.632Z,20.44
2022-08-17T21:30:27.867Z,20.45
2022-08-17T21:35:48.018Z,20.55
2022-08-17T21:40:53.188Z,20.73
2022-08-17T21:45:59.564Z,20.90
2022-08-17T21:51:19.008Z,21.04
2022-08-17T21:56:30.434Z,21.18
2022-08-17T22:01:35.597Z,21.35
2022-08-17T22:06:56.922Z,21.39
2022-08-17T22:12:11.278Z,21.46
2022-08-17T22:17:19.051Z,21.49
2022-08-17T22:22:34.355Z,21.51
2022-08-17T22:27:57.322Z,21.49
2022-08-17T22:33:00.926Z,21.47
2022-08-17T22:38:20.632Z,21.41
2022-08-17T22:43:28.556Z,21.41
2022-08-17T22:48:31.249Z,21.39
2022-08-17T22:53:53.791Z,21.26
2022-08-17T22:59:16.361Z,21.04
2022-08-17T23:04:35.365Z,20.72
2022-08-17T23:09:37.051Z,20.46
2022-08-17T23:14:41.214Z,20.19
2022-08-17T23:19:42.945Z,19.97
2022-08-17T23:24:48.971Z,19.80
2022-08-17T23:29:50.593Z,19.66
2022-08-17T23:34:52.135Z,19.50
2022-08-17T23:39:53.718Z,19.34
2022-08-17T23:44:55.827Z,19.19
2022-08-17T23:49:57.444Z,19.06
2022-08-17T23:55:05.344Z,18.98
